Terminal Aerodrome Forecast
Issued by NWS

Home | Current Version | Previous Version | Text Only | Print | Product List | Glossary On
Versions: 1 2 3 4 5 6 7 8 9 10 11 12 13 14 15 16
000
FTUS45 KABQ 311700 RRA
TAFGUP
TAF
KGUP 311744Z 3118/0118 VRB04KT P6SM FEW010 OVC015
     FM312000 29007KT P6SM BKN030
     FM010200 VRB03KT P6SM SCT030
     FM010800 VRB03KT P6SM SKC
      TEMPO 0108/0112 2SM BR BKN005=

USA.gov is the U.S. government's official web portal to all federal, state and local government web resources and services.